createdAt,value
2022-08-20T00:03:12.229Z,11.70
2022-08-20T00:08:17.295Z,11.25
2022-08-20T00:13:21.333Z,14.52
2022-08-20T00:18:24.317Z,14.43
2022-08-20T00:23:28.653Z,11.65
2022-08-20T00:28:31.369Z,15.38
2022-08-20T00:33:34.472Z,14.53
2022-08-20T00:38:40.430Z,15.27
2022-08-20T00:43:46.056Z,17.95
2022-08-20T00:48:51.012Z,16.85
2022-08-20T00:54:06.520Z,19.48
2022-08-20T00:59:11.372Z,19.85
2022-08-20T01:04:14.432Z,20.23
2022-08-20T01:09:18.527Z,18.47
2022-08-20T01:14:45.789Z,21.00
2022-08-20T01:19:50.186Z,20.52
2022-08-20T01:24:57.631Z,22.23
2022-08-20T01:30:06.841Z,21.55
2022-08-20T01:35:11.332Z,19.83
2022-08-20T01:40:15.290Z,23.00
2022-08-20T01:45:21.218Z,17.75
2022-08-20T01:50:31.862Z,24.25
2022-08-20T01:55:35.820Z,22.00
2022-08-20T02:00:39.983Z,27.77
2022-08-20T02:05:42.912Z,21.65
2022-08-20T02:10:46.339Z,24.27
2022-08-20T02:20:53.467Z,25.08
2022-08-20T02:25:56.465Z,25.58
2022-08-20T02:31:00.615Z,23.08
2022-08-20T02:36:05.156Z,25.95
2022-08-20T02:41:07.929Z,16.17
2022-08-20T02:46:11.048Z,32.03
2022-08-20T02:51:15.138Z,21.15
2022-08-20T02:56:18.286Z,25.50
2022-08-20T03:01:21.109Z,17.88
2022-08-20T03:06:25.212Z,16.83
2022-08-20T03:11:27.944Z,29.15
2022-08-20T03:16:31.357Z,25.95
2022-08-20T03:21:35.429Z,29.20
2022-08-20T03:26:38.304Z,21.00
2022-08-20T03:31:41.747Z,27.17
2022-08-20T03:36:45.897Z,26.60
2022-08-20T03:41:48.920Z,24.83
2022-08-20T03:46:51.574Z,29.53
2022-08-20T03:51:57.297Z,30.00
2022-08-20T03:57:12.653Z,26.75
2022-08-20T04:02:15.969Z,28.05
2022-08-20T04:07:25.392Z,30.42
2022-08-20T04:12:28.433Z,26.10
2022-08-20T04:17:32.722Z,30.80
2022-08-20T04:22:37.969Z,18.45
2022-08-20T04:27:41.527Z,26.73
2022-08-20T04:32:44.434Z,19.50
2022-08-20T04:37:49.796Z,26.35
2022-08-20T04:42:53.975Z,19.95
2022-08-20T04:47:56.941Z,16.92
2022-08-20T04:53:01.092Z,25.17
2022-08-20T04:58:04.554Z,23.55
2022-08-20T05:08:19.617Z,29.92
2022-08-20T05:13:26.785Z,29.20
2022-08-20T05:18:33.456Z,27.20
2022-08-20T05:23:43.178Z,24.45
2022-08-20T05:28:54.031Z,24.75
2022-08-20T05:34:02.599Z,24.55
2022-08-20T05:39:06.707Z,22.40
2022-08-20T05:44:13.507Z,16.92
2022-08-20T05:49:17.309Z,22.10
2022-08-20T05:54:21.950Z,22.90
2022-08-20T05:59:25.108Z,23.60
2022-08-20T06:04:28.546Z,23.17
2022-08-20T06:09:33.175Z,21.60
2022-08-20T06:14:36.483Z,17.15
2022-08-20T06:19:39.556Z,21.08
2022-08-20T06:24:48.770Z,21.33
2022-08-20T06:29:51.959Z,19.60
2022-08-20T06:34:54.588Z,21.40
2022-08-20T06:40:01.204Z,16.45
2022-08-20T06:45:05.825Z,19.00
2022-08-20T06:50:09.845Z,16.90
2022-08-20T06:55:14.468Z,17.67
2022-08-20T07:00:18.769Z,16.67
2022-08-20T07:05:21.600Z,14.05
2022-08-20T07:10:25.911Z,17.23
2022-08-20T07:15:28.858Z,18.23
2022-08-20T07:20:32.803Z,17.48
2022-08-20T07:25:37.237Z,17.30
2022-08-20T07:30:58.158Z,15.30
2022-08-20T07:36:06.590Z,16.02
2022-08-20T07:41:15.094Z,15.90
2022-08-20T07:46:20.776Z,15.00
2022-08-20T07:51:23.692Z,15.45
2022-08-20T07:56:27.967Z,14.63
2022-08-20T08:01:32.011Z,14.55
2022-08-20T08:06:34.724Z,14.20
2022-08-20T08:11:39.774Z,13.63
2022-08-20T08:16:45.674Z,13.75
2022-08-20T08:21:48.697Z,10.85
2022-08-20T08:26:52.829Z,11.98
2022-08-20T08:31:55.557Z,11.52
2022-08-20T08:36:58.464Z,13.73
2022-08-20T08:42:03.807Z,11.70
2022-08-20T08:47:13.776Z,11.23
2022-08-20T08:52:19.929Z,12.90
2022-08-20T08:57:24.492Z,13.48
2022-08-20T09:02:28.584Z,14.07
2022-08-20T09:07:32.625Z,14.63
2022-08-20T09:12:37.092Z,11.88
2022-08-20T09:17:40.001Z,16.27
2022-08-20T09:22:43.196Z,15.82
2022-08-20T09:27:47.466Z,14.70
2022-08-20T09:32:51.167Z,11.35
2022-08-20T09:37:54.865Z,15.48
2022-08-20T09:48:02.112Z,15.73
2022-08-20T09:53:06.493Z,18.67
2022-08-20T09:58:13.496Z,20.52
2022-08-20T10:03:18.352Z,20.88
2022-08-20T10:08:21.047Z,19.67
2022-08-20T10:13:23.781Z,18.40
2022-08-20T10:18:27.866Z,17.00
2022-08-20T10:23:30.531Z,20.00
2022-08-20T10:28:33.321Z,19.05
2022-08-20T10:33:37.843Z,17.50
2022-08-20T10:38:41.027Z,48.30
2022-08-20T10:43:44.243Z,25.73
2022-08-20T10:53:51.331Z,16.30
2022-08-20T10:58:54.158Z,16.35
2022-08-20T11:03:57.167Z,18.30
2022-08-20T11:09:01.389Z,18.05
2022-08-20T11:14:04.925Z,18.02
2022-08-20T11:19:07.600Z,18.17
2022-08-20T11:24:12.416Z,21.58
2022-08-20T11:29:15.353Z,15.98
2022-08-20T11:34:18.711Z,16.42
2022-08-20T11:39:22.793Z,16.88
2022-08-20T11:44:25.506Z,14.18
2022-08-20T11:49:28.158Z,15.73
2022-08-20T11:54:32.588Z,16.92
2022-08-20T11:59:35.619Z,17.52
2022-08-20T12:04:38.321Z,16.65
2022-08-20T12:09:51.265Z,17.42
2022-08-20T12:14:55.545Z,19.42
2022-08-20T12:19:59.335Z,18.63
2022-08-20T12:25:03.948Z,18.25
2022-08-20T12:30:12.235Z,21.85
2022-08-20T12:35:16.111Z,12.15
2022-08-20T12:40:30.868Z,10.55
2022-08-20T12:45:36.632Z,8.95
2022-08-20T12:50:39.866Z,11.40
2022-08-20T12:55:44.403Z,9.80
2022-08-20T13:00:50.878Z,10.68
2022-08-20T13:05:53.939Z,10.55
2022-08-20T13:10:58.024Z,10.48
2022-08-20T13:16:00.701Z,12.32
2022-08-20T13:26:07.308Z,10.47
2022-08-20T13:31:09.996Z,10.48
2022-08-20T13:36:13.190Z,8.93
2022-08-20T13:41:17.340Z,11.98
2022-08-20T13:46:20.137Z,10.68
2022-08-20T13:51:22.844Z,9.52
2022-08-20T13:56:31.692Z,5.40
2022-08-20T14:01:34.986Z,9.27
2022-08-20T14:06:37.652Z,8.65
2022-08-20T14:16:44.137Z,4.30
2022-08-20T14:21:46.766Z,2.22
2022-08-20T14:26:49.404Z,2.53
2022-08-20T14:31:53.416Z,4.72
2022-08-20T14:36:56.046Z,4.93
2022-08-20T14:41:58.796Z,3.33
2022-08-20T14:47:12.107Z,6.70
2022-08-20T14:52:15.744Z,10.93
2022-08-20T15:02:23.492Z,10.65
2022-08-20T15:07:27.188Z,10.45
2022-08-20T15:12:29.844Z,12.68
2022-08-20T15:17:34.296Z,7.73
2022-08-20T15:22:37.039Z,3.67
2022-08-20T15:27:40.281Z,6.03
2022-08-20T15:32:44.717Z,4.93
2022-08-20T15:37:48.399Z,6.72
2022-08-20T15:42:51.048Z,4.93
2022-08-20T15:47:56.376Z,4.43
2022-08-20T15:53:00.957Z,4.47
2022-08-20T15:58:10.006Z,6.75
2022-08-20T16:03:22.239Z,3.58
2022-08-20T16:08:36.055Z,3.35
2022-08-20T16:13:40.535Z,3.45
2022-08-20T16:18:47.799Z,4.68
2022-08-20T16:23:50.532Z,7.63
2022-08-20T16:28:59.012Z,3.63
2022-08-20T16:34:10.539Z,4.00
2022-08-20T16:39:35.751Z,3.67
2022-08-20T16:44:39.897Z,6.82
2022-08-20T16:49:47.262Z,8.63
2022-08-20T16:54:50.206Z,5.05
2022-08-20T16:59:58.118Z,4.22
2022-08-20T17:05:02.632Z,12.18
2022-08-20T17:10:11.720Z,5.32
2022-08-20T17:15:21.108Z,6.75
2022-08-20T17:20:29.275Z,6.35
2022-08-20T17:25:35.004Z,4.43
2022-08-20T17:30:39.476Z,7.35
2022-08-20T17:35:44.371Z,5.70
2022-08-20T17:40:47.232Z,7.10
2022-08-20T17:45:49.974Z,14.98
2022-08-20T17:50:54.744Z,9.07
2022-08-20T17:56:00.708Z,8.55
2022-08-20T18:01:03.873Z,8.65
2022-08-20T18:06:16.166Z,12.45
2022-08-20T18:11:23.119Z,6.13
2022-08-20T18:16:28.459Z,3.10
2022-08-20T18:21:50.914Z,8.27
2022-08-20T18:26:56.818Z,5.68
2022-08-20T18:32:01.357Z,7.00
2022-08-20T18:37:06.646Z,6.60
2022-08-20T18:42:10.926Z,7.90
2022-08-20T18:47:21.300Z,7.72
2022-08-20T18:52:26.526Z,11.00
2022-08-20T18:57:32.071Z,9.02
2022-08-20T19:02:54.582Z,8.77
2022-08-20T19:08:00.369Z,8.20
2022-08-20T19:13:15.888Z,9.75
2022-08-20T19:18:23.397Z,9.00
2022-08-20T19:23:33.451Z,8.98
2022-08-20T19:28:42.205Z,7.28
2022-08-20T19:33:46.903Z,9.50
2022-08-20T19:38:52.187Z,9.48
2022-08-20T19:43:55.197Z,6.78
2022-08-20T19:49:07.515Z,5.95
2022-08-20T19:54:19.440Z,6.45
2022-08-20T19:59:23.463Z,5.72
2022-08-20T20:04:29.633Z,6.95
2022-08-20T20:09:34.371Z,6.97
2022-08-20T20:14:39.518Z,5.93
2022-08-20T20:19:48.754Z,6.25
2022-08-20T20:24:59.384Z,5.53
2022-08-20T20:30:03.361Z,4.22
2022-08-20T20:35:06.883Z,6.78
2022-08-20T20:40:21.139Z,9.80
2022-08-20T20:45:30.041Z,8.13
2022-08-20T20:50:34.645Z,5.57
2022-08-20T20:55:38.922Z,7.75
2022-08-20T21:00:41.783Z,4.72
2022-08-20T21:05:44.444Z,4.73
2022-08-20T21:10:49.118Z,5.10
2022-08-20T21:15:51.964Z,4.60
2022-08-20T21:20:54.708Z,5.00
2022-08-20T21:25:59.105Z,3.90
2022-08-20T21:31:02.462Z,3.60
2022-08-20T21:36:05.959Z,2.90
2022-08-20T21:46:12.916Z,3.88
2022-08-20T21:51:15.816Z,3.55
2022-08-20T22:01:23.449Z,3.53
2022-08-20T22:06:26.759Z,1.52
2022-08-20T22:11:29.553Z,3.80
2022-08-20T22:16:33.742Z,4.47
2022-08-20T22:21:36.696Z,3.45
2022-08-20T22:26:40.229Z,3.17
2022-08-20T22:31:45.065Z,2.75
2022-08-20T22:36:47.888Z,1.65
2022-08-20T22:41:50.616Z,3.27
2022-08-20T22:46:56.613Z,2.83
2022-08-20T22:51:59.897Z,3.22
2022-08-20T22:57:02.788Z,2.75
2022-08-20T23:02:11.238Z,4.38
2022-08-20T23:07:14.982Z,3.78
2022-08-20T23:12:17.740Z,2.67
2022-08-20T23:17:22.209Z,3.25
2022-08-20T23:22:24.881Z,4.13
2022-08-20T23:27:28.212Z,5.18
2022-08-20T23:32:32.509Z,3.10
2022-08-20T23:37:35.433Z,3.47
2022-08-20T23:42:38.406Z,2.85
2022-08-20T23:47:42.988Z,3.83
2022-08-20T23:52:48.095Z,5.18
2022-08-20T23:57:50.757Z,3.53
